Time;durP1;ratioP1;P1;durP2;ratioP2;P2;SDS_P1;SDS_P2;PMS_P1;PMS_P2;Temp;Humidity;BMP_temperature;BMP_pressure;BME280_temperature;BME280_humidity;BME280_pressure;Samples;Min_cycle;Max_cycle;Signal;HPM_P1;HPM_P2
2024/01/13 00:01:18;;;;;;;;;18.50;13.25;;;;;2.56;73.83;102840.00;5114704;27;48132;-52
2024/01/13 00:03:44;;;;;;;;;14.75;11.25;;;;;2.59;73.80;102836.53;5112213;27;57886;-53
2024/01/13 00:06:09;;;;;;;;;18.25;14.25;;;;;2.62;73.66;102832.22;5116450;27;45345;-53
2024/01/13 00:08:35;;;;;;;;;18.00;16.00;;;;;2.69;73.71;102838.47;5114833;27;72426;-52
2024/01/13 00:11:00;;;;;;;;;25.75;19.75;;;;;2.71;73.73;102838.47;5095211;27;47762;-49
2024/01/13 00:13:25;;;;;;;;;23.50;22.50;;;;;2.73;73.77;102835.00;5115758;27;51769;-50
2024/01/13 00:15:51;;;;;;;;;14.00;13.75;;;;;2.73;73.79;102826.25;5118057;27;69049;-52
2024/01/13 00:18:18;;;;;;;;;28.25;20.50;;;;;2.77;73.51;102817.53;5118292;27;45378;-49
2024/01/13 00:20:44;;;;;;;;;14.00;8.50;;;;;2.78;73.39;102816.69;5140843;27;46887;-52
2024/01/13 00:23:09;;;;;;;;;18.33;14.67;;;;;2.77;73.42;102818.41;5110760;27;45470;-49
2024/01/13 00:25:35;;;;;;;;;18.75;17.25;;;;;2.79;73.25;102808.81;5116447;27;58439;-46
2024/01/13 00:28:01;;;;;;;;;20.67;13.33;;;;;2.83;73.51;102804.50;5116778;27;70220;-46
2024/01/13 00:30:26;;;;;;;;;14.00;12.00;;;;;2.84;72.97;102795.72;5118900;27;45506;-45
2024/01/13 00:32:51;;;;;;;;;23.33;18.00;;;;;2.84;73.07;102800.97;5117166;27;65803;-44
2024/01/13 00:35:17;;;;;;;;;24.25;19.00;;;;;2.81;72.67;102807.09;5115342;27;62259;-46
2024/01/13 00:37:44;;;;;;;;;19.67;17.67;;;;;2.72;72.96;102796.44;5119749;27;45545;-48
2024/01/13 00:40:10;;;;;;;;;30.00;22.00;;;;;2.64;72.84;102795.44;5118883;27;45341;-44
2024/01/13 00:42:35;;;;;;;;;23.00;13.50;;;;;2.54;73.07;102799.66;5117701;27;45461;-46
2024/01/13 00:45:01;;;;;;;;;22.00;18.67;;;;;2.52;72.80;102804.03;5117477;27;67677;-48
2024/01/13 00:47:26;;;;;;;;;19.25;15.00;;;;;2.54;73.44;102797.03;5118485;27;66957;-46
2024/01/13 00:49:51;;;;;;;;;19.25;13.50;;;;;2.54;73.21;102802.28;5117628;27;75958;-44
2024/01/13 00:52:17;;;;;;;;;15.33;14.00;;;;;2.54;73.52;102791.78;5115530;27;64780;-46
2024/01/13 00:54:44;;;;;;;;;21.50;16.75;;;;;2.54;73.13;102809.31;5117913;27;68423;-46
2024/01/13 00:57:09;;;;;;;;;22.75;14.75;;;;;2.44;73.25;102796.03;5118870;27;45512;-48
2024/01/13 00:59:35;;;;;;;;;19.00;19.00;;;;;2.40;73.47;102783.72;5119199;27;45993;-45
2024/01/13 01:02:00;;;;;;;;;16.00;12.25;;;;;2.42;73.78;102795.09;5118381;27;59122;-48
2024/01/13 01:04:25;;;;;;;;;20.67;15.33;;;;;2.41;74.00;102790.75;5129248;27;69327;-46
2024/01/13 01:06:51;;;;;;;;;18.00;13.67;;;;;2.40;73.52;102794.22;5117929;27;69640;-46
2024/01/13 01:09:16;;;;;;;;;17.00;12.00;;;;;2.41;73.67;102795.09;5117076;27;50391;-44
2024/01/13 01:11:42;;;;;;;;;22.33;11.33;;;;;2.40;73.39;102788.06;5116956;27;70394;-46
2024/01/13 01:14:08;;;;;;;;;19.75;16.75;;;;;2.39;73.82;102794.22;5121703;27;45346;-45
2024/01/13 01:16:33;;;;;;;;;16.00;13.50;;;;;2.40;73.53;102788.06;5122666;27;45316;-45
2024/01/13 01:18:59;;;;;;;;;21.50;15.75;;;;;2.39;73.66;102787.19;5120908;27;45747;-46
2024/01/13 01:21:24;;;;;;;;;12.33;11.00;;;;;2.43;73.73;102781.13;5122225;27;55985;-44
2024/01/13 01:23:49;;;;;;;;;13.67;11.67;;;;;2.45;73.85;102782.03;5121715;27;68067;-46
2024/01/13 01:26:15;;;;;;;;;14.00;12.25;;;;;2.47;73.49;102779.44;5119158;27;45302;-46
2024/01/13 01:28:40;;;;;;;;;16.50;12.50;;;;;2.50;73.57;102786.47;5121027;27;45352;-45
2024/01/13 01:31:06;;;;;;;;;13.33;11.67;;;;;2.52;73.71;102776.88;5120020;27;71820;-45
2024/01/13 01:33:31;;;;;;;;;17.00;15.33;;;;;2.55;73.79;102790.06;5119920;27;45373;-45
2024/01/13 01:35:56;;;;;;;;;17.00;14.00;;;;;2.59;73.60;102782.22;5119529;27;64504;-44
2024/01/13 01:38:22;;;;;;;;;17.00;11.67;;;;;2.63;73.66;102788.44;5119844;27;68273;-46
2024/01/13 01:40:53;;;;;;;;;23.00;13.67;;;;;2.67;73.76;102787.59;5119798;27;73288;-45
2024/01/13 01:43:19;;;;;;;;;14.67;8.33;;;;;2.69;73.59;102792.91;5121067;27;45475;-46
2024/01/13 01:45:46;;;;;;;;;22.33;14.67;;;;;2.70;73.06;102785.03;5098267;27;70480;-44
2024/01/13 01:48:11;;;;;;;;;22.33;12.33;;;;;2.71;73.54;102785.91;5118086;27;46983;-46
2024/01/13 01:50:37;;;;;;;;;12.00;11.33;;;;;2.72;73.35;102785.94;5119868;27;65646;-45
2024/01/13 01:53:02;;;;;;;;;17.67;15.33;;;;;2.69;73.18;102785.03;5116285;27;69249;-44
2024/01/13 01:55:27;;;;;;;;;16.33;11.67;;;;;2.69;73.31;102777.13;5112012;27;55419;-46
2024/01/13 01:57:54;;;;;;;;;16.00;11.67;;;;;2.71;73.46;102789.44;5107225;27;46222;-45
2024/01/13 02:00:19;;;;;;;;;17.33;14.00;;;;;2.74;73.48;102784.22;5113694;27;45363;-48
2024/01/13 02:02:45;;;;;;;;;22.00;16.33;;;;;2.78;73.26;102783.41;5119553;27;66784;-45
2024/01/13 02:05:10;;;;;;;;;18.33;13.00;;;;;2.79;73.23;102779.91;5119139;27;54870;-48
2024/01/13 02:07:36;;;;;;;;;23.25;15.25;;;;;2.79;72.96;102781.63;5119921;27;70406;-45
2024/01/13 02:10:01;;;;;;;;;20.67;17.00;;;;;2.80;73.42;102781.69;5140709;27;73365;-46
2024/01/13 02:12:27;;;;;;;;;16.67;12.33;;;;;2.81;73.13;102780.78;5121705;27;45740;-45
2024/01/13 02:14:54;;;;;;;;;18.67;13.67;;;;;2.84;72.86;102777.31;5117811;27;64607;-46
2024/01/13 02:17:19;;;;;;;;;20.33;12.67;;;;;2.85;72.86;102771.22;5121674;27;47014;-46
2024/01/13 02:19:45;;;;;;;;;13.33;10.33;;;;;2.83;72.85;102764.16;5121495;27;45438;-48
2024/01/13 02:22:10;;;;;;;;;16.67;12.00;;;;;2.84;72.67;102773.81;5117427;27;68119;-45
2024/01/13 02:24:35;;;;;;;;;16.00;15.00;;;;;2.80;72.19;102770.25;5117143;27;67017;-45
2024/01/13 02:27:01;;;;;;;;;12.67;7.33;;;;;2.72;72.15;102764.91;5119560;27;74942;-45
2024/01/13 02:29:26;;;;;;;;;15.33;11.67;;;;;2.65;72.43;102766.56;5120703;27;63853;-48
2024/01/13 02:31:51;;;;;;;;;16.67;12.00;;;;;2.58;72.44;102764.72;5119980;27;69458;-46
2024/01/13 02:34:17;;;;;;;;;11.00;8.33;;;;;2.51;72.91;102762.84;5120619;27;45428;-45
2024/01/13 02:36:42;;;;;;;;;18.67;12.00;;;;;2.48;72.79;102761.06;5120692;27;55747;-46
2024/01/13 02:39:07;;;;;;;;;9.00;8.67;;;;;2.47;72.73;102761.03;5119812;27;69983;-45
2024/01/13 02:41:33;;;;;;;;;13.67;11.33;;;;;2.46;72.67;102748.75;5120889;27;45413;-46
2024/01/13 02:43:58;;;;;;;;;11.00;6.00;;;;;2.45;72.70;102745.25;5119061;27;69421;-46
2024/01/13 02:46:23;;;;;;;;;16.75;12.50;;;;;2.42;72.54;102760.97;5120254;27;75566;-46
2024/01/13 02:48:52;;;;;;;;;9.33;9.00;;;;;2.37;72.71;102757.38;5121104;27;45581;-45
2024/01/13 02:51:18;;;;;;;;;7.33;6.00;;;;;2.36;73.12;102754.72;5119612;27;45491;-46
2024/01/13 02:53:43;;;;;;;;;9.00;9.00;;;;;2.36;73.11;102749.47;5118464;27;45600;-46
2024/01/13 02:56:09;;;;;;;;;11.67;7.67;;;;;2.36;73.02;102750.38;5118454;27;66002;-44
2024/01/13 02:58:34;;;;;;;;;18.00;13.00;;;;;2.36;72.96;102750.38;5119868;27;67487;-45
2024/01/13 03:01:00;;;;;;;;;12.00;9.00;;;;;2.38;73.29;102746.03;5120479;27;45270;-45
2024/01/13 03:03:25;;;;;;;;;23.00;13.33;;;;;2.38;72.99;102738.13;5120277;27;46546;-44
2024/01/13 03:05:50;;;;;;;;;14.67;10.33;;;;;2.35;72.63;102731.94;5119992;27;46157;-46
2024/01/13 03:08:16;;;;;;;;;18.75;12.50;;;;;2.29;72.98;102724.88;5119432;27;73621;-46
2024/01/13 03:10:41;;;;;;;;;13.33;12.00;;;;;2.23;72.86;102728.31;5118762;27;69390;-44
2024/01/13 03:13:06;;;;;;;;;18.00;13.00;;;;;2.18;73.39;102723.81;5120345;27;45430;-47
2024/01/13 03:15:32;;;;;;;;;16.00;14.00;;;;;2.15;73.20;102722.94;5118420;27;58056;-45
2024/01/13 03:17:57;;;;;;;;;11.00;8.33;;;;;2.15;73.20;102716.78;5120374;27;45364;-49
2024/01/13 03:20:23;;;;;;;;;17.75;12.75;;;;;2.17;73.09;102727.31;5103981;27;54356;-45
2024/01/13 03:22:48;;;;;;;;;13.67;8.33;;;;;2.19;73.16;102723.88;5119879;27;45562;-47
2024/01/13 03:25:13;;;;;;;;;11.67;8.33;;;;;2.23;72.97;102714.25;5119671;27;45399;-48
2024/01/13 03:27:39;;;;;;;;;15.00;12.00;;;;;2.19;72.87;102715.09;5120141;27;46357;-46
2024/01/13 03:30:05;;;;;;;;;12.00;7.67;;;;;2.19;73.11;102710.72;5118242;27;67600;-45
2024/01/13 03:32:30;;;;;;;;;8.00;7.00;;;;;2.20;72.91;102703.72;5119313;27;45683;-47
2024/01/13 03:34:55;;;;;;;;;11.50;10.75;;;;;2.18;72.27;102697.56;5117865;27;73491;-46
2024/01/13 03:37:21;;;;;;;;;12.67;7.67;;;;;2.14;72.36;102694.91;5118389;27;69224;-46
2024/01/13 03:39:46;;;;;;;;;8.67;7.00;;;;;2.14;72.44;102687.00;5121031;27;46642;-47
2024/01/13 03:42:11;;;;;;;;;10.00;7.00;;;;;2.12;72.36;102686.09;5119352;27;46169;-44
2024/01/13 03:44:36;;;;;;;;;15.67;12.67;;;;;2.14;72.57;102680.91;5119015;27;71517;-44
2024/01/13 03:47:02;;;;;;;;;16.00;10.33;;;;;2.15;72.56;102688.78;5118757;27;68735;-45
2024/01/13 03:49:27;;;;;;;;;8.33;7.33;;;;;2.18;72.43;102679.16;5118347;27;62685;-45
2024/01/13 03:51:52;;;;;;;;;7.33;7.33;;;;;2.20;72.51;102672.22;5107709;27;67767;-45
2024/01/13 03:54:18;;;;;;;;;8.33;8.33;;;;;2.24;72.45;102666.13;5113513;27;74328;-44
2024/01/13 03:56:43;;;;;;;;;17.33;9.00;;;;;2.26;72.43;102667.06;5119313;27;45404;-46
2024/01/13 03:59:11;;;;;;;;;12.33;6.67;;;;;2.29;72.37;102661.84;5118704;27;66465;-46
2024/01/13 04:01:37;;;;;;;;;19.33;12.67;;;;;2.29;72.09;102661.84;5120530;27;45302;-46
2024/01/13 04:04:02;;;;;;;;;13.33;7.00;;;;;2.25;71.89;102660.03;5117304;27;62683;-45
2024/01/13 04:06:27;;;;;;;;;12.00;6.00;;;;;2.24;72.36;102661.78;5119848;27;45399;-45
2024/01/13 04:08:53;;;;;;;;;16.00;8.67;;;;;2.26;72.37;102664.44;5117828;27;69486;-45
2024/01/13 04:11:18;;;;;;;;;14.00;9.67;;;;;2.27;72.17;102661.81;5118392;27;65761;-46
2024/01/13 04:13:43;;;;;;;;;6.75;5.00;;;;;2.29;72.96;102661.84;5119804;27;46808;-46
2024/01/13 04:16:09;;;;;;;;;12.50;7.75;;;;;2.27;72.51;102655.69;5117020;27;71887;-45
2024/01/13 04:18:34;;;;;;;;;9.33;7.33;;;;;2.28;72.55;102657.44;5115933;27;45454;-45
2024/01/13 04:20:59;;;;;;;;;14.67;11.33;;;;;2.28;72.46;102639.06;5118782;27;61063;-48
2024/01/13 04:23:25;;;;;;;;;12.33;12.33;;;;;2.27;72.39;102648.69;5116273;27;72784;-45
2024/01/13 04:25:51;;;;;;;;;12.67;10.67;;;;;2.21;72.64;102642.47;5113536;27;48439;-46
2024/01/13 04:28:16;;;;;;;;;10.67;8.67;;;;;2.21;73.04;102639.84;5118348;27;45298;-45
2024/01/13 04:30:42;;;;;;;;;13.33;8.33;;;;;2.22;72.59;102647.75;5117823;27;56141;-47
2024/01/13 04:33:07;;;;;;;;;10.67;8.00;;;;;2.25;72.79;102650.41;5115399;27;74456;-46
2024/01/13 04:35:32;;;;;;;;;8.67;8.00;;;;;2.27;72.75;102647.81;5118103;27;73443;-46
2024/01/13 04:37:58;;;;;;;;;13.67;8.00;;;;;2.26;72.69;102653.94;5115876;27;63928;-47
2024/01/13 04:40:23;;;;;;;;;11.67;8.00;;;;;2.24;72.62;102656.53;5119338;27;45568;-46
2024/01/13 04:42:48;;;;;;;;;12.33;7.67;;;;;2.23;72.37;102657.41;5116026;27;73064;-46
2024/01/13 04:45:14;;;;;;;;;13.00;6.67;;;;;2.22;72.54;102658.25;5116713;27;50417;-45
2024/01/13 04:47:40;;;;;;;;;13.00;7.33;;;;;2.20;72.46;102645.97;5120331;27;67797;-47
2024/01/13 04:50:05;;;;;;;;;12.33;8.33;;;;;2.17;72.81;102643.28;5121638;27;45622;-44
2024/01/13 04:52:31;;;;;;;;;7.67;5.33;;;;;2.17;72.81;102646.78;5109784;27;46071;-47
2024/01/13 04:54:56;;;;;;;;;9.67;6.67;;;;;2.21;72.75;102642.47;5119391;27;45574;-46
2024/01/13 04:57:21;;;;;;;;;13.33;12.00;;;;;2.23;72.95;102644.25;5122272;27;45324;-45
2024/01/13 04:59:47;;;;;;;;;13.67;7.67;;;;;2.26;72.69;102638.16;5122237;27;65629;-45
2024/01/13 05:02:12;;;;;;;;;7.67;5.33;;;;;2.27;72.60;102635.56;5120723;27;46912;-46
2024/01/13 05:04:39;;;;;;;;;13.33;6.33;;;;;2.24;72.55;102622.41;5156375;27;45430;-45
2024/01/13 05:07:04;;;;;;;;;11.00;7.00;;;;;2.21;72.59;102626.72;5121183;27;45490;-45
2024/01/13 05:09:30;;;;;;;;;9.00;8.33;;;;;2.18;72.93;102624.94;5122833;27;45537;-46
2024/01/13 05:11:55;;;;;;;;;10.33;7.33;;;;;2.15;72.19;102623.16;5115638;27;75880;-46
2024/01/13 05:14:20;;;;;;;;;11.67;4.00;;;;;2.11;72.29;102618.72;5122462;27;45356;-46
2024/01/13 05:16:46;;;;;;;;;10.33;7.67;;;;;2.07;72.28;102621.25;5122533;27;45375;-46
2024/01/13 05:19:11;;;;;;;;;11.67;6.00;;;;;2.02;72.25;102617.69;5122571;27;45482;-46
2024/01/13 05:21:37;;;;;;;;;7.67;6.67;;;;;1.99;72.28;102608.03;5121623;27;45929;-48
2024/01/13 05:24:02;;;;;;;;;12.67;7.33;;;;;1.98;72.25;102612.41;5121096;27;45420;-47
2024/01/13 05:26:27;;;;;;;;;11.00;8.00;;;;;2.00;72.69;102604.53;5117105;27;45456;-45
2024/01/13 05:28:53;;;;;;;;;8.67;7.33;;;;;2.01;72.53;102600.16;5121101;27;60553;-46
2024/01/13 05:31:18;;;;;;;;;9.75;8.00;;;;;2.04;72.32;102598.47;5118034;27;74671;-47
2024/01/13 05:33:43;;;;;;;;;9.33;8.33;;;;;2.06;72.43;102593.25;5119807;27;72873;-44
2024/01/13 05:36:08;;;;;;;;;12.75;9.25;;;;;2.05;72.46;102597.63;5120776;27;62512;-44
2024/01/13 05:38:34;;;;;;;;;12.00;9.67;;;;;2.03;72.36;102588.81;5121481;27;69760;-45
2024/01/13 05:40:59;;;;;;;;;16.50;14.25;;;;;2.04;72.27;102589.72;5119435;27;46836;-46
2024/01/13 05:43:25;;;;;;;;;9.33;8.67;;;;;2.04;72.76;102593.22;5120297;27;67304;-49
2024/01/13 05:45:50;;;;;;;;;16.00;9.33;;;;;2.05;72.49;102594.13;5118483;27;58583;-47
2024/01/13 05:48:15;;;;;;;;;10.00;7.33;;;;;2.04;72.31;102595.84;5117657;27;69212;-45
2024/01/13 05:50:41;;;;;;;;;6.33;5.00;;;;;2.04;72.20;102587.97;5120211;27;67821;-48
2024/01/13 05:53:06;;;;;;;;;15.00;9.00;;;;;2.05;71.51;102581.88;5107088;27;72104;-46
2024/01/13 05:55:31;;;;;;;;;10.33;9.67;;;;;2.06;72.32;102577.47;5117890;27;45480;-46
2024/01/13 05:57:57;;;;;;;;;8.67;6.67;;;;;2.07;72.51;102574.88;5120156;27;69379;-46
2024/01/13 06:00:22;;;;;;;;;10.67;2.67;;;;;2.10;72.56;102574.94;5120702;27;54754;-46
2024/01/13 06:02:47;;;;;;;;;11.00;7.00;;;;;2.13;72.38;102572.34;5109291;27;45158;-44
2024/01/13 06:05:13;;;;;;;;;8.67;6.33;;;;;2.13;72.68;102569.72;5119098;27;69424;-45
2024/01/13 06:07:38;;;;;;;;;8.00;8.00;;;;;2.11;72.46;102560.97;5109598;27;45333;-45
2024/01/13 06:10:04;;;;;;;;;14.00;7.67;;;;;2.10;72.63;102555.66;5120619;27;71973;-45
2024/01/13 06:12:30;;;;;;;;;11.33;6.67;;;;;2.10;72.40;102559.19;5120971;27;45354;-45
2024/01/13 06:14:55;;;;;;;;;16.00;7.33;;;;;2.10;72.42;102560.91;5120998;27;45480;-48
2024/01/13 06:17:21;;;;;;;;;17.67;12.00;;;;;2.10;72.51;102559.19;5120642;27;70436;-44
2024/01/13 06:19:46;;;;;;;;;16.00;10.67;;;;;2.07;72.38;102559.13;5121276;27;45546;-48
2024/01/13 06:22:12;;;;;;;;;13.00;7.67;;;;;2.06;72.48;102548.59;5119381;27;45527;-44
2024/01/13 06:24:37;;;;;;;;;8.33;8.33;;;;;2.06;72.04;102552.13;5121189;27;45412;-45
2024/01/13 06:27:03;;;;;;;;;7.33;3.67;;;;;2.07;72.21;102547.75;5119430;27;64833;-46
2024/01/13 06:29:28;;;;;;;;;9.67;8.00;;;;;2.07;72.60;102540.75;5120676;27;45988;-44
2024/01/13 06:31:53;;;;;;;;;15.75;12.25;;;;;2.06;72.56;102548.59;5119358;27;68062;-44
2024/01/13 06:34:19;;;;;;;;;13.00;7.00;;;;;2.04;72.12;102547.72;5120744;27;58253;-44
2024/01/13 06:36:44;;;;;;;;;12.00;8.67;;;;;2.03;72.26;102540.69;5118804;27;70899;-44
2024/01/13 06:39:09;;;;;;;;;9.67;6.00;;;;;2.01;72.57;102538.06;5120582;27;46095;-44
2024/01/13 06:41:35;;;;;;;;;13.00;10.50;;;;;2.02;72.35;102547.72;5119803;27;45383;-44
2024/01/13 06:44:00;;;;;;;;;7.67;7.67;;;;;2.00;72.42;102552.03;5120339;27;61014;-47
2024/01/13 06:46:25;;;;;;;;;17.00;11.33;;;;;1.99;72.32;102560.78;5152374;27;45393;-45
2024/01/13 06:48:51;;;;;;;;;14.00;11.75;;;;;1.95;72.48;102559.84;5119915;27;74892;-43
2024/01/13 06:51:16;;;;;;;;;19.25;8.00;;;;;1.90;72.31;102563.28;5114640;27;72806;-48
2024/01/13 06:53:41;;;;;;;;;13.25;11.00;;;;;1.88;72.43;102554.47;5110807;27;68275;-45
2024/01/13 06:56:08;;;;;;;;;15.67;7.67;;;;;1.85;72.60;102550.06;5115948;27;45214;-45
2024/01/13 06:58:33;;;;;;;;;11.00;6.67;;;;;1.86;72.49;102543.09;5117730;27;46656;-44
2024/01/13 07:00:59;;;;;;;;;25.00;15.50;;;;;1.86;72.44;102543.09;5118703;27;64523;-44
2024/01/13 07:03:24;;;;;;;;;11.75;8.25;;;;;1.85;72.78;102543.94;5120680;27;45175;-47
2024/01/13 07:05:49;;;;;;;;;11.00;11.00;;;;;1.81;73.03;102536.03;5120022;27;45524;-45
2024/01/13 07:08:15;;;;;;;;;13.67;8.67;;;;;1.81;72.99;102535.16;5118776;27;70413;-44
2024/01/13 07:10:40;;;;;;;;;21.00;11.00;;;;;1.81;73.09;102536.03;5117466;27;72080;-45
2024/01/13 07:13:05;;;;;;;;;11.00;9.33;;;;;1.84;72.44;102534.31;5116282;27;45508;-45
2024/01/13 07:15:31;;;;;;;;;16.00;11.67;;;;;1.86;72.62;102543.09;5119087;27;69166;-44
2024/01/13 07:17:59;;;;;;;;;10.00;6.67;;;;;1.86;72.56;102540.47;5119330;27;74773;-45
2024/01/13 07:20:24;;;;;;;;;16.50;10.00;;;;;1.87;72.50;102544.88;5119403;27;45411;-46
2024/01/13 07:22:50;;;;;;;;;15.00;10.25;;;;;1.87;72.33;102544.88;5119848;27;66703;-44
2024/01/13 07:25:16;;;;;;;;;22.75;16.75;;;;;1.87;72.46;102535.25;5117621;27;45645;-44
2024/01/13 07:27:41;;;;;;;;;13.00;10.25;;;;;1.87;71.95;102539.63;5118243;27;71071;-44
2024/01/13 07:30:07;;;;;;;;;8.67;6.67;;;;;1.87;72.13;102537.88;5117770;27;72188;-45
2024/01/13 07:32:32;;;;;;;;;7.50;4.00;;;;;1.87;71.91;102539.63;5120581;27;45699;-46
2024/01/13 07:34:57;;;;;;;;;10.67;7.33;;;;;1.87;72.58;102540.50;5119105;27;61655;-46
2024/01/13 07:37:23;;;;;;;;;19.75;14.25;;;;;1.88;72.12;102536.09;5118372;27;64827;-47
2024/01/13 07:39:48;;;;;;;;;15.75;10.50;;;;;1.86;72.62;102528.22;5118930;27;49890;-45
2024/01/13 07:42:13;;;;;;;;;11.00;6.00;;;;;1.87;72.58;102524.75;5119934;27;45438;-46
2024/01/13 07:44:41;;;;;;;;;11.00;8.50;;;;;1.89;72.78;102520.41;5117358;27;45445;-45
2024/01/13 07:47:07;;;;;;;;;11.50;10.75;;;;;1.93;72.55;102521.31;5118411;27;45929;-50
2024/01/13 07:49:32;;;;;;;;;21.00;15.75;;;;;1.95;72.51;102523.09;5117629;27;69765;-45
2024/01/13 07:51:58;;;;;;;;;13.25;11.00;;;;;1.98;72.57;102520.53;5100697;27;45515;-46
2024/01/13 07:54:23;;;;;;;;;11.00;6.25;;;;;2.01;72.20;102513.53;5119589;27;45316;-46
2024/01/13 07:56:49;;;;;;;;;18.00;8.25;;;;;1.98;71.67;102509.13;5119437;27;46975;-47
2024/01/13 07:59:16;;;;;;;;;16.00;10.75;;;;;1.95;72.21;102512.59;5115638;27;45899;-44
2024/01/13 08:01:42;;;;;;;;;13.00;11.25;;;;;1.91;71.74;102516.03;5119893;27;45380;-46
2024/01/13 08:04:07;;;;;;;;;11.25;8.75;;;;;1.91;71.99;102512.56;5114295;27;45668;-45
2024/01/13 08:06:33;;;;;;;;;15.00;6.50;;;;;1.93;72.21;102511.72;5118917;27;75026;-45
2024/01/13 08:08:58;;;;;;;;;16.50;12.25;;;;;1.95;72.10;102501.22;5110483;27;71073;-45
2024/01/13 08:11:23;;;;;;;;;14.25;10.75;;;;;1.96;72.42;102503.88;5117635;27;69486;-47
2024/01/13 08:13:49;;;;;;;;;17.00;11.25;;;;;1.99;72.41;102503.03;5118952;27;59185;-45
2024/01/13 08:16:14;;;;;;;;;17.00;12.25;;;;;2.02;71.87;102496.94;5106877;27;46884;-44
2024/01/13 08:18:39;;;;;;;;;17.25;8.50;;;;;2.05;71.64;102494.38;5117616;27;45650;-46
2024/01/13 08:21:05;;;;;;;;;11.67;11.67;;;;;2.08;72.26;102497.03;5107896;27;45365;-46
2024/01/13 08:23:30;;;;;;;;;21.00;13.00;;;;;2.08;72.07;102495.25;5104569;27;45399;-46
2024/01/13 08:25:56;;;;;;;;;15.67;11.00;;;;;2.04;71.89;102490.84;5118614;27;47021;-47
2024/01/13 08:28:21;;;;;;;;;23.75;14.00;;;;;2.03;72.29;102490.81;5139886;27;45527;-46
2024/01/13 08:30:47;;;;;;;;;16.25;11.50;;;;;2.04;72.12;102493.47;5126926;27;45468;-45
2024/01/13 08:33:12;;;;;;;;;17.25;14.25;;;;;2.04;72.22;102492.59;5118857;27;45521;-47
2024/01/13 08:35:37;;;;;;;;;11.00;9.33;;;;;2.02;71.93;102487.34;5140955;27;46164;-46
2024/01/13 08:38:03;;;;;;;;;13.33;10.00;;;;;2.03;72.23;102481.19;5115629;27;70370;-46
2024/01/13 08:40:28;;;;;;;;;21.25;10.00;;;;;2.08;72.28;102486.50;5119692;27;45337;-49
2024/01/13 08:42:53;;;;;;;;;14.75;12.00;;;;;2.13;72.31;102480.44;5130077;27;45419;-46
2024/01/13 08:45:23;;;;;;;;;14.33;12.67;;;;;2.19;72.20;102478.75;5111823;27;46419;-47
2024/01/13 08:47:48;;;;;;;;;16.67;12.67;;;;;2.24;72.17;102492.81;5113511;27;49775;-46
2024/01/13 08:50:14;;;;;;;;;17.33;12.67;;;;;2.27;72.06;102498.13;5095222;27;45460;-48
2024/01/13 08:52:40;;;;;;;;;14.00;10.67;;;;;2.32;71.46;102499.03;5109548;27;45496;-47
2024/01/13 08:55:06;;;;;;;;;13.33;11.00;;;;;2.34;71.62;102505.19;5118180;27;45378;-50
2024/01/13 08:57:31;;;;;;;;;18.25;11.50;;;;;2.35;72.36;102509.59;5116900;27;45373;-47
2024/01/13 08:59:56;;;;;;;;;20.33;15.33;;;;;2.35;71.57;102514.84;5114935;27;57205;-47
2024/01/13 09:02:22;;;;;;;;;21.75;13.25;;;;;2.37;71.92;102528.00;5118096;27;45389;-46
2024/01/13 09:04:47;;;;;;;;;23.75;17.00;;;;;2.37;71.43;102526.22;5118391;27;50214;-45
2024/01/13 09:07:12;;;;;;;;;16.00;11.67;;;;;2.37;71.54;102536.75;5116534;27;73039;-45
2024/01/13 09:09:38;;;;;;;;;25.00;19.50;;;;;2.35;71.47;102538.47;5117833;27;60605;-47
2024/01/13 09:12:03;;;;;;;;;19.00;17.25;;;;;2.34;71.45;102535.84;5114469;27;66166;-47
2024/01/13 09:14:28;;;;;;;;;24.25;16.00;;;;;2.29;71.22;102534.06;5117177;27;46060;-48
2024/01/13 09:16:54;;;;;;;;;17.75;15.50;;;;;2.29;71.34;102530.53;5115733;27;62556;-47
2024/01/13 09:19:19;;;;;;;;;18.25;14.25;;;;;2.28;71.71;102527.03;5118400;27;64767;-47
2024/01/13 09:21:44;;;;;;;;;20.00;15.00;;;;;2.28;71.70;102526.13;5117407;27;68800;-51
2024/01/13 09:24:10;;;;;;;;;17.00;14.50;;;;;2.31;71.68;102526.19;5116697;27;46193;-51
2024/01/13 09:26:42;;;;;;;;;27.50;23.50;;;;;2.30;71.41;102530.53;5117248;27;45488;-49
2024/01/13 09:29:08;;;;;;;;;17.33;12.00;;;;;2.24;71.67;102508.59;5118278;27;45410;-50
2024/01/13 09:31:33;;;;;;;;;23.75;18.75;;;;;2.24;71.82;102500.69;5116259;27;45456;-49
2024/01/13 09:33:58;;;;;;;;;19.00;12.25;;;;;2.27;71.96;102506.88;5120062;27;68679;-48
2024/01/13 09:36:24;;;;;;;;;20.75;14.75;;;;;2.32;71.84;102522.66;5119379;27;71126;-49
2024/01/13 09:38:49;;;;;;;;;21.00;16.75;;;;;2.32;71.55;102525.28;5119557;27;45422;-51
2024/01/13 09:41:14;;;;;;;;;14.50;12.25;;;;;2.27;71.71;102514.75;5120181;27;61123;-51
2024/01/13 09:44:03;;;;;;;;;30.25;14.00;;;;;2.28;71.65;102521.78;5121088;27;45963;-51
2024/01/13 09:46:29;;;;;;;;;21.50;18.50;;;;;2.30;71.62;102521.78;5111429;27;45230;-53
2024/01/13 09:48:55;;;;;;;;;33.00;21.00;;;;;2.34;71.61;102535.84;5120206;27;45445;-52
2024/01/13 09:51:22;;;;;;;;;24.75;16.75;;;;;2.35;71.44;102553.34;5127709;27;68941;-51
2024/01/13 09:53:54;;;;;;;;;20.25;14.50;;;;;2.31;71.43;102557.69;5122955;27;46403;-55
2024/01/13 09:56:24;;;;;;;;;14.25;11.50;;;;;2.28;71.39;102560.28;5111814;27;45540;-52
2024/01/13 09:58:50;;;;;;;;;32.75;22.25;;;;;2.22;71.41;102554.97;5120548;27;45788;-52
2024/01/13 10:01:15;;;;;;;;;22.00;13.50;;;;;2.15;71.72;102552.25;5118569;27;45246;-52
2024/01/13 10:03:41;;;;;;;;;22.00;18.25;;;;;2.09;71.66;102539.03;5116963;27;45869;-51
2024/01/13 10:06:07;;;;;;;;;20.00;10.50;;;;;2.07;71.80;102542.50;5119400;27;61431;-52
2024/01/13 10:08:33;;;;;;;;;20.25;15.00;;;;;2.09;71.86;102548.66;5121857;27;45431;-52
2024/01/13 10:11:02;;;;;;;;;22.50;17.25;;;;;2.11;72.06;102539.94;5120979;27;45578;-53
2024/01/13 10:13:27;;;;;;;;;16.50;12.25;;;;;2.13;71.65;102548.72;5118871;27;45582;-52
2024/01/13 10:15:52;;;;;;;;;17.75;12.50;;;;;2.15;71.87;102541.75;5115238;27;48807;-55
2024/01/13 10:18:23;;;;;;;;;19.00;12.75;;;;;2.22;71.67;102528.72;5119285;27;45283;-51
2024/01/13 10:20:49;;;;;;;;;25.50;18.50;;;;;2.29;71.86;102513.03;5121141;27;45281;-51
2024/01/13 10:23:14;;;;;;;;;17.00;12.00;;;;;2.36;71.77;102520.97;5118655;27;46277;-51
2024/01/13 10:25:40;;;;;;;;;14.25;11.75;;;;;2.42;71.29;102519.28;5102152;27;45545;-54
2024/01/13 10:28:05;;;;;;;;;13.25;8.50;;;;;2.47;70.92;102521.97;5119369;27;70005;-51
2024/01/13 10:30:31;;;;;;;;;31.25;21.75;;;;;2.48;71.02;102529.00;5121368;27;45395;-51
2024/01/13 10:32:59;;;;;;;;;16.00;12.00;;;;;2.47;70.85;102521.97;5119543;27;45908;-51
2024/01/13 10:35:27;;;;;;;;;17.00;9.25;;;;;2.54;70.78;102509.78;5119363;27;65811;-49
2024/01/13 10:37:55;;;;;;;;;19.25;17.25;;;;;2.57;70.67;102501.94;5119404;27;45287;-52
2024/01/13 10:40:20;;;;;;;;;22.50;12.00;;;;;2.62;70.65;102497.59;5120229;27;45607;-51
2024/01/13 10:42:48;;;;;;;;;16.25;13.25;;;;;2.65;70.51;102495.03;5118948;27;71365;-55
2024/01/13 10:45:17;;;;;;;;;17.75;12.75;;;;;2.69;70.45;102499.44;5120784;27;45547;-52
2024/01/13 10:47:51;;;;;;;;;18.00;13.25;;;;;2.73;70.40;102485.47;5119528;27;45487;-53
2024/01/13 10:50:17;;;;;;;;;17.00;12.00;;;;;2.74;70.25;102483.75;5120108;27;45534;-53
2024/01/13 10:52:50;;;;;;;;;19.50;17.00;;;;;2.76;70.17;102480.22;5118328;27;64509;-50
2024/01/13 10:55:15;;;;;;;;;16.25;12.75;;;;;2.79;70.34;102466.22;5148169;27;45593;-52
2024/01/13 10:57:41;;;;;;;;;21.00;18.00;;;;;2.82;69.93;102453.13;5117350;27;45278;-52
2024/01/13 11:00:10;;;;;;;;;15.00;13.25;;;;;2.86;69.92;102446.16;5114260;27;68946;-53
2024/01/13 11:02:37;;;;;;;;;14.75;12.00;;;;;2.89;69.54;102440.91;5117085;27;45574;-51
2024/01/13 11:05:03;;;;;;;;;21.25;17.00;;;;;2.91;69.23;102436.56;5118575;27;45466;-51
2024/01/13 11:07:29;;;;;;;;;16.00;12.50;;;;;2.91;69.36;102424.28;5119826;27;45811;-51
2024/01/13 11:09:56;;;;;;;;;19.00;16.50;;;;;2.89;69.60;102414.63;5118059;27;47696;-52
2024/01/13 11:12:41;;;;;;;;;15.50;11.75;;;;;2.91;69.81;102426.91;5118705;27;46241;-50
2024/01/13 11:15:14;;;;;;;;;19.75;14.25;;;;;2.94;69.89;102433.94;5146443;27;45525;-52